Schedule Details

Flight Number: CPX256
Departure: Princess Juliana International Airport (TNCM) at N/A
Arrival: Grantley Adams International Airport (TBPB) at N/A
Route: PJM B520 ANU UA632 BGI


Current Weather Information
TNCM 180600Z 08009KT 050V120 9999 FEW030 25/19 Q1019 RMK A3010 LGT HZ ALSEC
TBPB 180600Z 08015KT 9999 FEW022 25/19 Q1016 NOSIG

Route Map